Time;durP1;ratioP1;P1;durP2;ratioP2;P2;SDS_P1;SDS_P2;PMS_P1;PMS_P2;Temp;Humidity;BMP_temperature;BMP_pressure;BME280_temperature;BME280_humidity;BME280_pressure;Samples;Min_cycle;Max_cycle;Signal;HPM_P1;HPM_P2
2021/08/01 00:00:14;;;;;;;13.07;7.37;;;15.00;99.90;;;;;;20721746;28;20131;-80
2021/08/01 00:10:16;;;;;;;12.48;6.60;;;14.90;99.90;;;;;;20743102;28;20564;-81
2021/08/01 00:20:17;;;;;;;14.03;7.70;;;14.90;99.90;;;;;;20730928;28;20117;-79
2021/08/01 00:30:18;;;;;;;15.07;8.70;;;14.80;99.90;;;;;;20724879;28;20038;-80
2021/08/01 00:40:20;;;;;;;12.13;6.53;;;14.80;99.90;;;;;;20743198;28;20476;-80
2021/08/01 00:50:22;;;;;;;15.20;7.63;;;14.80;99.90;;;;;;20751354;28;20030;-79
2021/08/01 01:10:46;;;;;;;11.23;5.25;;;14.50;99.90;;;;;;20752801;28;20030;-79
2021/08/01 01:21:20;;;;;;;12.02;4.88;;;14.30;99.90;;;;;;20765856;28;20034;-79
2021/08/01 01:31:43;;;;;;;12.77;4.43;;;14.20;99.90;;;;;;20771410;28;20172;-80
2021/08/01 01:41:46;;;;;;;9.68;3.92;;;14.20;99.90;;;;;;20745421;28;20141;-79
2021/08/01 01:51:59;;;;;;;6.93;4.40;;;14.10;99.90;;;;;;20779567;28;20038;-80
2021/08/01 02:02:00;;;;;;;10.63;4.80;;;13.90;99.90;;;;;;20780363;28;20025;-79
2021/08/01 02:12:05;;;;;;;10.63;5.70;;;13.70;99.90;;;;;;20765596;28;20404;-80
2021/08/01 02:22:17;;;;;;;9.02;5.03;;;13.60;99.90;;;;;;20783198;28;20036;-79
2021/08/01 02:32:19;;;;;;;8.50;4.38;;;13.60;99.90;;;;;;20766836;28;20030;-80
2021/08/01 02:42:22;;;;;;;6.22;3.80;;;13.50;99.90;;;;;;20784069;28;20675;-80
2021/08/01 02:52:57;;;;;;;6.07;3.60;;;13.40;99.90;;;;;;20835670;22;20067;-76
2021/08/01 03:02:59;;;;;;;6.63;3.92;;;13.30;99.90;;;;;;20802119;28;20045;-76
2021/08/01 03:13:02;;;;;;;7.65;4.13;;;13.20;99.90;;;;;;20809894;28;20037;-76
2021/08/01 03:23:03;;;;;;;8.48;4.40;;;13.10;99.90;;;;;;20826077;28;20507;-76
2021/08/01 03:33:23;;;;;;;10.77;5.20;;;13.10;99.90;;;;;;20824955;28;20091;-76
2021/08/01 03:43:25;;;;;;;13.33;5.87;;;13.10;99.90;;;;;;20825112;28;20021;-76
2021/08/01 03:53:25;;;;;;;11.77;5.90;;;13.10;99.90;;;;;;20806775;28;20467;-77
2021/08/01 04:03:26;;;;;;;10.20;5.40;;;13.10;99.90;;;;;;20824161;28;20041;-76
2021/08/01 04:13:27;;;;;;;14.70;4.30;;;13.20;99.90;;;;;;20824171;28;20488;-77
2021/08/01 04:23:28;;;;;;;7.90;3.80;;;13.10;99.90;;;;;;20824010;28;20049;-76
2021/08/01 04:33:29;;;;;;;6.80;4.80;;;13.10;99.90;;;;;;20823529;28;20056;-76
2021/08/01 04:43:30;;;;;;;7.87;4.13;;;13.00;99.90;;;;;;20812469;28;20068;-76
2021/08/01 04:53:30;;;;;;;8.43;5.50;;;12.90;99.90;;;;;;20840568;28;20068;-75
2021/08/01 05:03:31;;;;;;;12.57;8.37;;;12.90;99.90;;;;;;20836369;28;20104;-76
2021/08/01 05:13:32;;;;;;;15.00;6.27;;;13.00;99.90;;;;;;20836133;28;20029;-76
2021/08/01 05:23:33;;;;;;;6.90;5.07;;;13.10;99.90;;;;;;20834492;28;20487;-75
2021/08/01 05:33:34;;;;;;;7.10;4.93;;;13.10;99.90;;;;;;20816708;28;20029;-76
2021/08/01 05:43:39;;;;;;;14.50;7.07;;;13.20;99.90;;;;;;20832771;28;20083;-75
2021/08/01 05:53:40;;;;;;;13.93;5.63;;;13.20;99.90;;;;;;20832009;28;20030;-76
2021/08/01 06:03:42;;;;;;;15.37;5.97;;;13.40;99.90;;;;;;20831413;28;20037;-75
2021/08/01 06:13:43;;;;;;;8.77;6.00;;;13.40;99.90;;;;;;20813035;28;20053;-75
2021/08/01 06:23:51;;;;;;;10.10;5.60;;;13.40;99.90;;;;;;20812266;28;20030;-76
2021/08/01 06:33:52;;;;;;;11.18;6.25;;;13.50;99.90;;;;;;20811475;28;20432;-75
2021/08/01 06:43:53;;;;;;;8.93;6.53;;;13.60;99.90;;;;;;20811517;28;20029;-76
2021/08/01 06:53:53;;;;;;;11.33;6.50;;;13.50;99.90;;;;;;20827580;28;20099;-75
2021/08/01 07:03:54;;;;;;;10.53;6.60;;;13.70;99.90;;;;;;20826870;28;20430;-76
2021/08/01 07:13:55;;;;;;;12.30;6.53;;;13.80;99.90;;;;;;20826388;28;20087;-74
2021/08/01 07:23:56;;;;;;;10.30;5.70;;;13.90;99.90;;;;;;20826534;28;20032;-75
2021/08/01 07:34:00;;;;;;;14.43;5.97;;;13.90;99.90;;;;;;20807733;28;20033;-76
2021/08/01 07:44:01;;;;;;;11.57;6.15;;;14.10;99.90;;;;;;20825110;28;20033;-75
2021/08/01 07:54:01;;;;;;;9.70;5.30;;;14.30;99.90;;;;;;20806667;28;20112;-75
2021/08/01 08:04:02;;;;;;;10.00;5.40;;;14.30;99.90;;;;;;20822367;28;20512;-76
2021/08/01 08:14:03;;;;;;;10.53;5.57;;;14.10;99.90;;;;;;20806934;28;20026;-75
2021/08/01 08:24:04;;;;;;;8.47;5.13;;;14.30;99.90;;;;;;20837775;28;20026;-75
2021/08/01 08:34:05;;;;;;;12.07;5.53;;;14.30;99.90;;;;;;20838227;28;20121;-75
2021/08/01 08:44:06;;;;;;;11.53;5.77;;;14.70;99.90;;;;;;20822360;28;20057;-76
2021/08/01 08:54:14;;;;;;;7.70;4.70;;;14.90;99.90;;;;;;20854330;22;20430;-77
2021/08/01 09:04:15;;;;;;;9.13;4.38;;;15.00;99.90;;;;;;20784940;28;20507;-79
2021/08/01 09:14:20;;;;;;;8.93;4.77;;;15.10;99.90;;;;;;20836289;28;20036;-79
2021/08/01 09:24:31;;;;;;;6.28;4.10;;;15.30;99.90;;;;;;20807724;28;20029;-79
2021/08/01 09:34:32;;;;;;;9.30;4.05;;;15.70;99.90;;;;;;20814707;28;20507;-79
2021/08/01 09:44:37;;;;;;;5.63;3.53;;;15.80;99.90;;;;;;20797278;28;20060;-79
2021/08/01 09:54:47;;;;;;;8.00;3.38;;;15.70;99.90;;;;;;20815442;28;20033;-79
2021/08/01 10:04:51;;;;;;;5.40;3.38;;;15.70;99.90;;;;;;20803040;28;20810;-80
2021/08/01 10:14:52;;;;;;;4.22;2.58;;;16.50;99.90;;;;;;20794407;28;20635;-78
2021/08/01 10:24:56;;;;;;;3.90;2.70;;;16.50;99.90;;;;;;20775251;28;20120;-78
2021/08/01 10:35:17;;;;;;;7.47;2.80;;;16.50;99.90;;;;;;20804608;28;20045;-77
2021/08/01 10:45:20;;;;;;;4.13;2.17;;;17.70;99.90;;;;;;20782571;28;20486;-79
2021/08/01 10:55:23;;;;;;;4.97;1.83;;;17.50;99.90;;;;;;20783652;28;20596;-79
2021/08/01 11:05:37;;;;;;;5.10;2.40;;;17.80;99.90;;;;;;20788377;28;20037;-78
2021/08/01 11:15:55;;;;;;;4.13;1.50;;;18.40;99.90;;;;;;20809585;28;20040;-79
2021/08/01 11:26:07;;;;;;;2.95;1.60;;;18.30;99.90;;;;;;20804161;28;20033;-79
2021/08/01 11:36:17;;;;;;;2.88;1.70;;;18.60;99.90;;;;;;20793690;28;20045;-80
2021/08/01 11:46:19;;;;;;;2.70;1.48;;;19.60;99.90;;;;;;20794949;28;20108;-81
2021/08/01 11:56:20;;;;;;;4.03;1.30;;;19.20;99.90;;;;;;20827072;28;20095;-80
2021/08/01 12:06:38;;;;;;;1.50;1.10;;;19.30;99.90;;;;;;20830442;28;20045;-80
2021/08/01 12:17:07;;;;;;;2.80;1.33;;;19.60;99.90;;;;;;20796232;28;20469;-79
2021/08/01 12:27:16;;;;;;;1.42;1.13;;;20.10;99.90;;;;;;20799191;28;20041;-81
2021/08/01 12:37:17;;;;;;;1.00;0.70;;;19.50;99.90;;;;;;20812577;28;20044;-80
2021/08/01 12:47:18;;;;;;;1.77;1.23;;;19.10;99.90;;;;;;20810936;28;20045;-78
2021/08/01 12:57:25;;;;;;;2.75;1.33;;;19.20;99.90;;;;;;20811123;28;20099;-82
2021/08/01 13:07:26;;;;;;;1.63;1.13;;;18.90;99.90;;;;;;20836602;28;20435;-81
2021/08/01 13:17:43;;;;;;;1.83;1.37;;;18.60;99.90;;;;;;20821179;28;20046;-80
2021/08/01 13:27:51;;;;;;;2.33;1.30;;;18.40;99.90;;;;;;20799360;28;20044;-81
2021/08/01 13:38:03;;;;;;;6.32;2.10;;;18.20;99.90;;;;;;20787462;28;20044;-81
2021/08/01 13:48:04;;;;;;;4.10;1.38;;;18.40;99.90;;;;;;20802324;28;20753;-81
2021/08/01 13:58:08;;;;;;;2.33;1.43;;;18.70;99.90;;;;;;20806128;28;20061;-81
2021/08/01 14:08:09;;;;;;;2.67;1.30;;;18.70;99.90;;;;;;20792563;28;20056;-81
2021/08/01 14:18:10;;;;;;;3.17;1.60;;;19.90;99.90;;;;;;20804915;28;20492;-80
2021/08/01 14:28:12;;;;;;;2.90;1.80;;;20.30;99.90;;;;;;20819740;28;20025;-80
2021/08/01 14:38:13;;;;;;;2.80;1.40;;;19.70;99.90;;;;;;20799786;28;20385;-80
2021/08/01 14:48:19;;;;;;;3.60;1.47;;;19.10;99.90;;;;;;20838402;22;20072;-75
2021/08/01 14:58:25;;;;;;;2.17;1.35;;;19.00;99.90;;;;;;20777724;28;21157;-75
2021/08/01 15:08:59;;;;;;;3.13;1.65;;;18.80;99.90;;;;;;20696125;28;20818;-75
2021/08/01 15:19:12;;;;;;;3.08;1.40;;;18.30;99.90;;;;;;20712044;28;20080;-74
2021/08/01 15:29:13;;;;;;;3.70;1.48;;;17.90;99.90;;;;;;20708832;28;20957;-74
2021/08/01 15:39:15;;;;;;;5.00;1.20;;;17.70;99.90;;;;;;20711589;28;20030;-74
2021/08/01 15:49:16;;;;;;;1.92;1.50;;;17.50;99.90;;;;;;20712775;28;20034;-76
2021/08/01 15:59:21;;;;;;;3.13;2.30;;;16.60;99.90;;;;;;20711164;28;20045;-75
2021/08/01 16:09:51;;;;;;;3.72;2.40;;;16.30;99.90;;;;;;20690433;28;20089;-74
2021/08/01 16:19:52;;;;;;;6.97;2.67;;;16.10;99.90;;;;;;20712039;28;20034;-74
2021/08/01 16:29:53;;;;;;;5.60;3.07;;;16.00;99.90;;;;;;20711556;28;20040;-75
2021/08/01 16:39:54;;;;;;;2.97;2.45;;;15.80;99.90;;;;;;20721176;28;20030;-74
2021/08/01 16:50:01;;;;;;;4.00;2.90;;;15.80;99.90;;;;;;20726880;28;20060;-74
2021/08/01 17:00:08;;;;;;;4.88;2.90;;;15.80;99.90;;;;;;20727449;28;20026;-74
2021/08/01 17:10:09;;;;;;;5.68;3.00;;;15.60;99.90;;;;;;20726531;28;20022;-76
2021/08/01 17:20:11;;;;;;;5.40;3.07;;;15.80;99.90;;;;;;20705661;28;20033;-76
2021/08/01 17:30:13;;;;;;;5.90;3.55;;;15.60;99.90;;;;;;20724022;28;20049;-76
2021/08/01 17:40:16;;;;;;;10.03;3.30;;;15.60;99.90;;;;;;20723059;28;20367;-75
2021/08/01 17:50:18;;;;;;;7.60;3.50;;;15.40;99.90;;;;;;20706135;28;20037;-75
2021/08/01 18:00:25;;;;;;;6.10;3.08;;;15.40;99.90;;;;;;20723229;28;20034;-76
2021/08/01 18:10:28;;;;;;;5.45;3.05;;;15.40;99.90;;;;;;20721951;28;20049;-75
2021/08/01 18:20:31;;;;;;;6.10;3.15;;;15.40;99.90;;;;;;20702811;28;20472;-76
2021/08/01 18:30:32;;;;;;;8.90;2.70;;;15.40;99.90;;;;;;20717716;28;20106;-75
2021/08/01 18:40:36;;;;;;;3.47;2.10;;;15.40;99.90;;;;;;20719277;28;20366;-76
2021/08/01 18:50:42;;;;;;;5.45;1.73;;;15.20;99.90;;;;;;20718995;28;20096;-76
2021/08/01 19:00:47;;;;;;;4.70;2.22;;;15.00;99.90;;;;;;20700177;28;20702;-75
2021/08/01 19:10:50;;;;;;;9.93;2.45;;;14.80;99.90;;;;;;20717372;28;20754;-76
2021/08/01 19:21:03;;;;;;;4.13;1.95;;;14.70;99.90;;;;;;20683141;28;20040;-75
2021/08/01 19:31:07;;;;;;;3.05;1.95;;;14.60;99.90;;;;;;20714194;28;20042;-76
2021/08/01 19:41:09;;;;;;;2.85;1.65;;;14.40;99.90;;;;;;20715927;28;20038;-76
2021/08/01 19:51:09;;;;;;;;;;;14.10;99.90;;;;;;20717469;28;20575;-77
2021/08/01 20:01:11;;;;;;;3.92;1.75;;;14.00;99.90;;;;;;20698130;28;20032;-77
2021/08/01 20:11:12;;;;;;;2.60;1.70;;;13.60;99.90;;;;;;20711655;28;20037;-76
2021/08/01 20:21:14;;;;;;;3.03;1.83;;;13.60;99.90;;;;;;20713921;28;20033;-76
2021/08/01 20:31:17;;;;;;;4.95;2.47;;;13.30;99.90;;;;;;20752430;28;20619;-76
2021/08/01 20:41:18;;;;;;;9.60;2.17;;;13.00;99.90;;;;;;20758892;28;20117;-76
2021/08/01 20:51:18;;;;;;;7.30;2.40;;;12.90;99.90;;;;;;20759030;22;20034;-81
2021/08/01 21:01:19;;;;;;;6.30;2.27;;;12.80;99.90;;;;;;20751679;28;20034;-80
2021/08/01 21:11:20;;;;;;;11.40;2.37;;;12.90;99.90;;;;;;20781520;28;20034;-81
2021/08/01 21:21:21;;;;;;;6.50;2.47;;;12.70;99.90;;;;;;20780958;28;20121;-81
2021/08/01 21:31:22;;;;;;;6.83;2.50;;;12.30;99.90;;;;;;20739867;28;20129;-80
2021/08/01 21:41:22;;;;;;;5.70;2.50;;;12.20;99.90;;;;;;20733742;28;20469;-80
2021/08/01 21:51:24;;;;;;;7.60;2.47;;;12.00;99.90;;;;;;20762074;28;20496;-80
2021/08/01 22:01:29;;;;;;;5.90;2.65;;;11.90;99.90;;;;;;20741405;28;20077;-81
2021/08/01 22:11:30;;;;;;;6.43;3.72;;;12.00;99.90;;;;;;20740387;28;20492;-81
2021/08/01 22:21:31;;;;;;;13.83;6.33;;;11.90;99.90;;;;;;20743823;28;20034;-80
2021/08/01 22:31:36;;;;;;;21.60;11.80;;;11.70;99.90;;;;;;20743613;28;20044;-80
2021/08/01 22:41:37;;;;;;;24.65;12.13;;;11.80;99.90;;;;;;20746581;28;20033;-80
2021/08/01 22:51:39;;;;;;;19.67;11.17;;;11.80;99.90;;;;;;20767094;28;20030;-80
2021/08/01 23:01:51;;;;;;;13.50;8.23;;;11.80;99.90;;;;;;20762783;28;20108;-80
2021/08/01 23:12:04;;;;;;;16.40;8.10;;;12.00;99.90;;;;;;20764179;28;20030;-80
2021/08/01 23:22:06;;;;;;;13.75;8.27;;;12.00;99.90;;;;;;20770379;28;20388;-81
2021/08/01 23:32:10;;;;;;;20.40;12.35;;;12.20;99.90;;;;;;20738890;28;20038;-79
2021/08/01 23:42:16;;;;;;;23.70;15.02;;;12.40;99.90;;;;;;20741484;28;20030;-80
2021/08/01 23:52:26;;;;;;;25.20;12.65;;;12.50;99.90;;;;;;20767696;28;20073;-80
